createdAt,value
2019-06-08T04:45:48.091Z,19.90
2019-06-08T04:48:17.949Z,21.20
2019-06-08T04:50:49.622Z,19.60
2019-06-08T04:53:19.258Z,19.70
2019-06-08T04:55:49.282Z,20.70
2019-06-08T04:58:19.076Z,20.00
2019-06-08T05:00:50.709Z,20.10
2019-06-08T05:03:20.062Z,20.50
2019-06-08T05:05:50.343Z,21.20
2019-06-08T05:08:20.348Z,22.00
2019-06-08T05:10:49.981Z,22.70
2019-06-08T05:13:19.620Z,21.10
2019-06-08T05:15:50.226Z,19.60
2019-06-08T05:18:20.151Z,18.30
2019-06-08T05:20:51.453Z,17.90
2019-06-08T05:23:21.276Z,17.70
2019-06-08T05:25:50.893Z,17.80
2019-06-08T05:28:21.585Z,17.80
2019-06-08T05:30:51.197Z,17.80
2019-06-08T05:33:21.028Z,18.00
2019-06-08T05:35:50.707Z,17.70
2019-06-08T05:38:20.372Z,17.50
2019-06-08T05:40:50.083Z,17.50
2019-06-08T05:43:20.054Z,17.40
2019-06-08T05:45:50.005Z,17.20
2019-06-08T05:48:19.811Z,17.20
2019-06-08T05:51:00.537Z,17.20
2019-06-08T05:53:22.616Z,17.20
2019-06-08T05:55:52.570Z,17.20
2019-06-08T05:58:22.465Z,17.30
2019-06-08T06:00:52.154Z,17.30
2019-06-08T06:03:21.729Z,17.40
2019-06-08T06:05:51.414Z,17.40
2019-06-08T06:08:21.385Z,17.40
2019-06-08T06:10:51.432Z,17.40
2019-06-08T06:13:21.307Z,17.50
2019-06-08T06:15:51.751Z,17.50
2019-06-08T06:18:21.780Z,17.60
2019-06-08T06:20:51.667Z,17.70
2019-06-08T06:23:23.116Z,18.00
2019-06-08T06:25:54.900Z,18.00
2019-06-08T06:28:24.942Z,17.90
2019-06-08T06:30:54.729Z,17.80
2019-06-08T06:33:25.077Z,18.00
2019-06-08T06:35:55.104Z,18.10
2019-06-08T06:38:25.037Z,18.20
2019-06-08T06:40:55.605Z,18.10
2019-06-08T06:43:25.724Z,18.20
2019-06-08T06:45:55.707Z,18.30
2019-06-08T06:48:25.676Z,18.30
2019-06-08T06:50:56.650Z,18.40
2019-06-08T06:53:26.490Z,18.50
2019-06-08T06:55:56.612Z,18.30
2019-06-08T06:58:26.737Z,18.10
2019-06-08T07:00:56.720Z,17.70
2019-06-08T07:03:26.771Z,17.60
2019-06-08T07:05:56.786Z,17.40
2019-06-08T07:08:26.782Z,17.30
2019-06-08T07:10:56.601Z,17.20
2019-06-08T07:13:26.352Z,17.30
2019-06-08T07:15:58.138Z,17.40
2019-06-08T07:18:28.651Z,17.70
2019-06-08T07:20:58.694Z,17.80
2019-06-08T07:23:28.927Z,18.00
2019-06-08T07:26:00.707Z,18.10
2019-06-08T07:28:30.959Z,18.10
2019-06-08T07:31:00.933Z,18.20
2019-06-08T07:33:30.968Z,18.00
2019-06-08T07:36:01.001Z,18.20
2019-06-08T07:38:30.949Z,18.50
2019-06-08T07:41:01.826Z,18.90
2019-06-08T07:43:32.016Z,19.20
2019-06-08T07:46:02.023Z,19.20
2019-06-08T07:48:33.036Z,19.20
2019-06-08T07:51:03.027Z,19.10
2019-06-08T07:53:33.094Z,18.90
2019-06-08T07:56:03.071Z,19.00
2019-06-08T07:58:33.465Z,18.90
2019-06-08T08:01:07.932Z,19.00
2019-06-08T08:03:35.114Z,19.10
2019-06-08T08:06:05.134Z,19.10
2019-06-08T08:08:35.469Z,19.10
2019-06-08T08:11:06.686Z,18.90
2019-06-08T08:13:40.115Z,18.80
2019-06-08T08:16:10.162Z,18.90
2019-06-08T08:18:39.998Z,18.90
2019-06-08T08:21:21.829Z,18.90
2019-06-08T08:23:42.222Z,19.20
2019-06-08T08:26:12.287Z,19.20
2019-06-08T08:28:55.260Z,19.10
2019-06-08T08:31:30.294Z,19.00
2019-06-08T08:34:05.767Z,18.90
2019-06-08T08:36:33.384Z,18.70
2019-06-08T08:39:03.600Z,18.70
2019-06-08T08:41:33.712Z,18.60
2019-06-08T08:44:08.245Z,18.40
2019-06-08T08:46:38.822Z,18.30
2019-06-08T08:49:12.586Z,18.50
2019-06-08T08:51:40.744Z,18.60
2019-06-08T08:54:10.823Z,18.40
2019-06-08T08:56:40.810Z,18.50
2019-06-08T08:59:11.408Z,18.90
2019-06-08T09:01:41.470Z,19.00
2019-06-08T09:04:11.381Z,18.80
2019-06-08T09:06:42.407Z,18.70
2019-06-08T09:09:12.457Z,18.90
2019-06-08T09:11:42.970Z,19.20
2019-06-08T09:14:14.258Z,19.30
2019-06-08T09:16:44.457Z,19.20
2019-06-08T09:19:14.524Z,19.20
2019-06-08T09:21:44.859Z,19.10
2019-06-08T09:24:15.475Z,19.10
2019-06-08T09:26:47.613Z,19.10
2019-06-08T09:29:18.879Z,18.90
2019-06-08T09:31:49.536Z,18.70
2019-06-08T09:34:20.064Z,18.70
2019-06-08T09:36:50.433Z,18.70
2019-06-08T09:39:20.660Z,18.60
2019-06-08T09:41:50.738Z,18.50
2019-06-08T09:44:24.678Z,18.70
2019-06-08T09:46:58.748Z,19.00
2019-06-08T09:49:28.313Z,19.00
2019-06-08T09:52:03.238Z,19.00
2019-06-08T09:54:34.179Z,19.20
2019-06-08T09:57:06.771Z,19.60
2019-06-08T09:59:38.555Z,19.70
2019-06-08T10:02:12.712Z,19.90
2019-06-08T10:04:41.187Z,19.90
2019-06-08T10:07:18.732Z,19.60
2019-06-08T10:09:50.305Z,19.10
2019-06-08T10:12:20.816Z,18.60
2019-06-08T10:14:56.378Z,18.80
2019-06-08T10:17:27.896Z,19.30
2019-06-08T10:20:00.613Z,19.50
2019-06-08T10:22:31.872Z,19.40
2019-06-08T10:25:06.572Z,19.60
2019-06-08T10:27:38.426Z,19.70
2019-06-08T10:30:11.331Z,19.60
2019-06-08T10:32:41.428Z,19.40
2019-06-08T10:35:12.909Z,19.30
2019-06-08T10:37:42.960Z,19.20
2019-06-08T10:40:12.970Z,19.30
2019-06-08T10:42:43.424Z,19.30
2019-06-08T10:45:14.990Z,19.20
2019-06-08T10:47:47.767Z,18.90
2019-06-08T10:50:19.184Z,18.80
2019-06-08T10:52:49.869Z,18.60
2019-06-08T10:55:20.880Z,18.30
2019-06-08T10:57:51.078Z,18.10
2019-06-08T11:00:24.643Z,18.20
2019-06-08T11:02:55.608Z,18.00
2019-06-08T11:05:28.066Z,18.10
2019-06-08T11:07:59.277Z,18.10
2019-06-08T11:10:30.097Z,18.00
2019-06-08T11:13:05.237Z,18.40
2019-06-08T11:15:32.019Z,18.90
2019-06-08T11:18:06.658Z,19.10
2019-06-08T11:20:34.349Z,18.80
2019-06-08T11:23:05.651Z,18.60
2019-06-08T11:25:37.812Z,18.60
2019-06-08T11:28:14.856Z,18.50
2019-06-08T11:30:47.944Z,18.30
2019-06-08T11:33:17.349Z,18.40
2019-06-08T11:35:47.702Z,18.70
2019-06-08T11:38:20.215Z,19.10
2019-06-08T11:40:57.524Z,19.50
2019-06-08T11:43:29.145Z,19.80
2019-06-08T11:46:00.546Z,20.00
2019-06-08T11:48:30.399Z,19.90
2019-06-08T11:51:00.632Z,19.50
2019-06-08T11:53:31.988Z,19.50
2019-06-08T11:56:04.636Z,19.60
2019-06-08T11:58:38.526Z,19.80
2019-06-08T12:01:13.759Z,19.60
2019-06-08T12:03:41.547Z,19.70
2019-06-08T12:06:14.106Z,19.60
2019-06-08T12:08:43.546Z,19.80
2019-06-08T12:11:18.070Z,19.50
2019-06-08T12:13:47.395Z,19.40
2019-06-08T12:16:21.608Z,19.40
2019-06-08T12:18:50.594Z,19.40
2019-06-08T12:21:20.705Z,19.70
2019-06-08T12:23:50.581Z,20.00
2019-06-08T12:26:20.756Z,20.20
2019-06-08T12:28:51.563Z,20.10
2019-06-08T12:31:22.787Z,20.20
2019-06-08T12:34:18.475Z,20.20
2019-06-08T12:36:48.258Z,20.20
2019-06-08T12:39:20.948Z,20.10
2019-06-08T12:41:49.734Z,20.20
2019-06-08T12:44:22.067Z,20.40
2019-06-08T12:46:51.702Z,20.60
2019-06-08T12:49:21.741Z,20.50
2019-06-08T12:51:54.729Z,20.50
2019-06-08T12:54:24.827Z,20.30
2019-06-08T12:56:54.783Z,20.30
2019-06-08T12:59:25.083Z,20.20
2019-06-08T13:01:55.307Z,20.10
2019-06-08T13:04:25.805Z,20.40
2019-06-08T13:06:58.348Z,20.80
2019-06-08T13:09:29.932Z,20.70
2019-06-08T13:12:00.246Z,20.90
2019-06-08T13:14:30.729Z,21.10
2019-06-08T13:17:04.215Z,21.00
2019-06-08T13:19:38.517Z,20.90
2019-06-08T13:22:08.977Z,20.70
2019-06-08T13:24:39.935Z,20.40
2019-06-08T13:27:13.201Z,20.30
2019-06-08T13:29:44.300Z,20.50
2019-06-08T13:32:16.538Z,20.30
2019-06-08T13:34:47.346Z,20.50
2019-06-08T13:37:22.295Z,20.40
2019-06-08T13:39:52.515Z,20.20
2019-06-08T13:42:23.248Z,20.10
2019-06-08T13:44:53.923Z,20.00
2019-06-08T13:47:28.303Z,19.70
2019-06-08T13:50:01.219Z,19.30
2019-06-08T13:52:31.104Z,19.20
2019-06-08T13:55:03.717Z,19.00
2019-06-08T13:57:37.927Z,18.90
2019-06-08T14:00:11.685Z,18.70
2019-06-08T14:02:50.310Z,18.70
2019-06-08T14:05:22.939Z,18.70
2019-06-08T14:07:50.320Z,18.60
2019-06-08T14:10:25.589Z,18.70
2019-06-08T14:12:58.617Z,18.70
2019-06-08T14:15:28.312Z,18.60
2019-06-08T14:17:58.752Z,18.50
2019-06-08T14:20:34.136Z,18.70
2019-06-08T14:23:01.324Z,18.90
2019-06-08T14:25:46.884Z,18.90
2019-06-08T14:28:04.185Z,19.10
2019-06-08T14:30:34.283Z,19.00
2019-06-08T14:33:04.455Z,18.80
2019-06-08T14:35:34.376Z,18.80
2019-06-08T14:38:04.494Z,18.90
2019-06-08T14:40:34.908Z,18.90
2019-06-08T14:43:13.068Z,19.10
2019-06-08T14:45:44.852Z,19.20
2019-06-08T14:48:15.453Z,19.20
2019-06-08T14:50:47.968Z,19.20
2019-06-08T14:53:18.860Z,19.40
2019-06-08T14:56:02.169Z,19.70
2019-06-08T14:58:24.007Z,20.20
2019-06-08T15:00:53.920Z,20.30
2019-06-08T15:03:25.226Z,20.40
2019-06-08T15:05:57.633Z,20.80
2019-06-08T15:08:28.620Z,20.80
2019-06-08T15:10:58.584Z,20.80
2019-06-08T15:13:30.039Z,20.50
2019-06-08T15:16:00.678Z,20.40
2019-06-08T15:18:31.910Z,20.40
2019-06-08T15:21:02.631Z,20.40
2019-06-08T15:23:34.003Z,20.30
2019-06-08T15:26:03.962Z,20.30
2019-06-08T15:28:36.310Z,20.50
2019-06-08T15:31:08.363Z,20.80
2019-06-08T15:33:39.350Z,20.90
2019-06-08T15:36:10.016Z,20.60
2019-06-08T15:38:40.773Z,20.40
2019-06-08T15:41:10.816Z,20.30
2019-06-08T15:43:41.167Z,20.30
2019-06-08T15:46:15.749Z,20.10
2019-06-08T15:48:52.158Z,20.10
2019-06-08T15:51:22.628Z,20.10
2019-06-08T15:53:54.364Z,20.00
2019-06-08T15:56:38.170Z,20.10
2019-06-08T15:58:59.166Z,20.00
2019-06-08T16:01:39.321Z,20.00
2019-06-08T16:04:17.226Z,20.00
2019-06-08T16:06:57.235Z,19.80
2019-06-08T16:09:28.438Z,19.80
2019-06-08T16:12:03.309Z,19.60
2019-06-08T16:14:37.247Z,19.50
2019-06-08T16:17:21.048Z,19.40
2019-06-08T16:19:55.541Z,19.60
2019-06-08T16:22:26.118Z,19.70
2019-06-08T16:24:56.866Z,20.00
2019-06-08T16:27:27.668Z,19.80
2019-06-08T16:30:09.638Z,19.70
2019-06-08T16:32:39.800Z,19.60
2019-06-08T16:35:14.535Z,19.60
2019-06-08T16:37:50.154Z,19.60
2019-06-08T16:40:20.622Z,19.50
2019-06-08T16:42:51.687Z,19.30
2019-06-08T16:45:37.632Z,19.00
2019-06-08T16:48:14.654Z,19.00
2019-06-08T16:51:04.449Z,18.90
2019-06-08T16:53:34.170Z,18.90
2019-06-08T16:56:05.248Z,18.80
2019-06-08T16:58:36.165Z,18.90
2019-06-08T17:01:11.543Z,19.10
2019-06-08T17:03:47.707Z,19.20
2019-06-08T17:06:18.309Z,19.10
2019-06-08T17:08:50.293Z,19.00
2019-06-08T17:11:20.207Z,19.10
2019-06-08T17:13:50.654Z,18.90
2019-06-08T17:16:22.883Z,18.80
2019-06-08T17:18:55.896Z,18.90
2019-06-08T17:21:26.157Z,19.00
2019-06-08T17:23:56.350Z,19.00
2019-06-08T17:26:26.706Z,18.90
2019-06-08T17:28:59.225Z,18.80
2019-06-08T17:31:35.134Z,18.80
2019-06-08T17:34:07.197Z,18.90
2019-06-08T17:36:38.610Z,18.70
2019-06-08T17:39:18.788Z,18.60
2019-06-08T17:42:03.421Z,18.70
2019-06-08T17:44:34.881Z,18.60
2019-06-08T17:47:05.536Z,18.70
2019-06-08T17:49:36.793Z,18.70
2019-06-08T17:52:16.006Z,18.80
2019-06-08T17:54:50.997Z,18.90
2019-06-08T17:57:23.935Z,18.80
2019-06-08T18:00:03.962Z,18.80
2019-06-08T18:02:35.542Z,18.70
2019-06-08T18:05:07.029Z,18.50
2019-06-08T18:07:39.034Z,18.50
2019-06-08T18:10:14.133Z,18.40
2019-06-08T18:12:49.316Z,18.40
2019-06-08T18:15:28.392Z,18.40
2019-06-08T18:18:00.812Z,18.50
2019-06-08T18:20:34.478Z,18.60
2019-06-08T18:23:07.901Z,18.50
2019-06-08T18:25:58.818Z,18.50
2019-06-08T18:28:48.528Z,18.50
2019-06-08T18:31:19.315Z,18.50
2019-06-08T18:34:01.188Z,18.60
2019-06-08T18:36:39.181Z,18.30
2019-06-08T18:39:31.616Z,18.10
2019-06-08T18:41:57.719Z,18.00
2019-06-08T18:44:48.598Z,17.90
2019-06-08T18:47:27.426Z,17.60
2019-06-08T18:50:08.754Z,17.60
2019-06-08T18:52:49.494Z,17.50
2019-06-08T18:55:27.520Z,17.40
2019-06-08T18:57:56.989Z,17.40
2019-06-08T19:00:41.929Z,17.40
2019-06-08T19:03:17.207Z,17.50
2019-06-08T19:06:10.670Z,17.40
2019-06-08T19:08:58.518Z,17.30
2019-06-08T19:11:45.378Z,17.30
2019-06-08T19:14:24.413Z,17.30
2019-06-08T19:17:03.305Z,17.20
2019-06-08T19:19:38.563Z,16.90
2019-06-08T19:22:09.338Z,16.80
2019-06-08T19:24:49.456Z,16.70
2019-06-08T19:27:22.187Z,16.60
2019-06-08T19:30:08.637Z,16.40
2019-06-08T19:32:42.925Z,16.30
2019-06-08T19:35:13.598Z,16.10
2019-06-08T19:38:54.615Z,16.00
2019-06-08T19:41:28.099Z,15.80
2019-06-08T19:44:00.086Z,15.80
2019-06-08T19:46:31.881Z,15.70
2019-06-08T19:49:03.964Z,15.60
2019-06-08T19:51:33.935Z,15.50
2019-06-08T19:54:04.457Z,15.60
2019-06-08T19:56:34.421Z,15.60
2019-06-08T19:59:08.173Z,15.60
2019-06-08T20:01:37.939Z,15.60
2019-06-08T20:04:08.346Z,15.50
2019-06-08T20:06:47.562Z,15.60
2019-06-08T20:09:23.982Z,15.50
2019-06-08T20:11:59.393Z,15.40
2019-06-08T20:14:37.361Z,15.40
2019-06-08T20:17:17.222Z,15.40
2019-06-08T20:19:48.927Z,15.40
2019-06-08T20:22:23.468Z,15.40
2019-06-08T20:24:56.019Z,15.40
2019-06-08T20:27:27.765Z,15.30
2019-06-08T20:30:08.140Z,15.40
2019-06-08T20:32:44.955Z,15.40
2019-06-08T20:35:27.871Z,15.40
2019-06-08T20:37:57.948Z,15.40
2019-06-08T20:40:28.672Z,15.30
2019-06-08T20:42:59.328Z,15.30
2019-06-08T20:45:30.742Z,15.30
2019-06-08T20:48:27.553Z,15.20
2019-06-08T20:51:02.942Z,15.20
2019-06-08T20:53:38.886Z,15.20
2019-06-08T20:56:17.407Z,15.20
2019-06-08T20:58:51.351Z,15.10
2019-06-08T21:01:23.023Z,15.10
2019-06-08T21:04:00.613Z,15.10
2019-06-08T21:06:35.732Z,15.10
2019-06-08T21:09:07.936Z,15.10
2019-06-08T21:11:38.318Z,15.10
2019-06-08T21:14:08.476Z,15.00
2019-06-08T21:16:44.545Z,15.10
2019-06-08T21:19:18.092Z,15.10
2019-06-08T21:21:54.612Z,15.00
2019-06-08T21:24:24.860Z,15.10
2019-06-08T21:27:03.065Z,15.00
2019-06-08T21:29:49.088Z,15.00
2019-06-08T21:32:14.624Z,15.00
2019-06-08T21:34:49.287Z,14.90
2019-06-08T21:37:23.595Z,14.90
2019-06-08T21:39:56.949Z,14.80
2019-06-08T21:42:27.823Z,14.80
2019-06-08T21:45:06.183Z,14.80
2019-06-08T21:47:38.492Z,14.80
2019-06-08T21:50:23.697Z,14.90
2019-06-08T21:53:03.289Z,14.70
2019-06-08T21:55:39.179Z,14.60
2019-06-08T21:58:17.850Z,14.50
2019-06-08T22:00:54.724Z,14.50
2019-06-08T22:03:37.916Z,14.50
2019-06-08T22:06:08.036Z,14.40
2019-06-08T22:08:38.221Z,14.40
2019-06-08T22:11:12.533Z,14.40
2019-06-08T22:13:47.595Z,14.30
2019-06-08T22:16:17.333Z,14.40
2019-06-08T22:18:53.057Z,14.40
2019-06-08T22:21:30.184Z,14.20
2019-06-08T22:24:07.745Z,14.30
2019-06-08T22:26:41.218Z,14.30
2019-06-08T22:29:11.721Z,14.40
2019-06-08T22:31:42.254Z,14.30
2019-06-08T22:34:17.489Z,14.30
2019-06-08T22:36:54.153Z,14.30
2019-06-08T22:39:27.973Z,14.20
2019-06-08T22:42:01.375Z,14.20
2019-06-08T22:44:34.070Z,14.20
2019-06-08T22:47:08.230Z,14.20
2019-06-08T22:49:38.611Z,14.10
2019-06-08T22:53:07.807Z,14.10
2019-06-08T22:55:38.365Z,14.20
2019-06-08T22:58:09.390Z,14.00
2019-06-08T23:00:51.387Z,14.00
2019-06-08T23:03:14.055Z,13.90
2019-06-08T23:05:55.108Z,14.00
2019-06-08T23:08:23.502Z,13.90
2019-06-08T23:10:58.575Z,14.00
2019-06-08T23:13:29.146Z,14.00
2019-06-08T23:16:04.381Z,13.90
2019-06-08T23:18:37.301Z,13.90
2019-06-08T23:21:08.898Z,13.90
2019-06-08T23:23:42.274Z,13.80
2019-06-08T23:26:15.509Z,13.80
2019-06-08T23:28:47.549Z,13.80
2019-06-08T23:31:24.915Z,13.80
2019-06-08T23:33:50.915Z,13.70
2019-06-08T23:36:46.725Z,13.60
2019-06-08T23:39:13.829Z,13.60
2019-06-08T23:41:47.855Z,13.70
2019-06-08T23:44:19.990Z,13.60
2019-06-08T23:46:53.717Z,13.60
2019-06-08T23:49:31.914Z,13.50
2019-06-08T23:52:09.876Z,13.50
2019-06-08T23:54:37.756Z,13.40
2019-06-08T23:57:12.054Z,13.50
2019-06-08T23:59:47.876Z,13.40
